Impacts TAF Board
For situational awareness. Not to be used for flight planning purposes.
IDs:

PAJN - Juneau Intl Arpt, AK, US

Issued at 2331 UTC 28 Nov 2020
Updated at 0223 UTC 29 Nov 2020
Potential Impact None Slight Moderate High
Time0153Z 29/03Z 29/04Z 29/05Z 29/06Z 29/07Z 29/08Z 29/09Z 29/10Z 29/11Z 29/12Z 29/13Z 29/14Z 29/15Z>>
Type OBS PRVL PRVL PRVL PRVL PRVL PRVL PRVL PRVL PRVL PRVL PRVL PRVL PRVL
VIS 4 4 4 4 4 4 4 4 4 4 4 4 4 4
CIG 17 15 15 15 15 15 15 15 15 15 15 15 15 15
Cover OVC OVC OVC OVC OVC OVC OVC OVC OVC OVC OVC OVC OVC OVC
FltCat MVFR MVFR MVFR MVFR MVFR MVFR MVFR MVFR MVFR MVFR MVFR MVFR MVFR MVFR
WX -RA BR RA BR RA BR RA BR RA BR RA BR RA BR RA BR RA BR RA BR RA BR RA BR RA BR RA BR
WDir 120 130 130 130 130 130 130 130 130 130 130 130 130 130
WSpd 13 20 20 20 20 20 20 20 20 20 20 20 20 20
WGst 21 35 35 35 35 35 35 35 35 35 35 35 35 35
Raw TAF
PAJN 282331Z 2900/2924 13020G35KT 4SM RA BR FEW007 BKN015 OVC020 WS020/17035KT
  TEMPO 2900/2902 12030G45KT 3SM RA OVC015


Raw METAR
PAJN 290153Z 12013G21KT 4SM -RA BR OVC017 03/01 A2944 RMK AO2 PK WND 12031/0054 SNE17 SLP970 P0008 T00280011 $
PAJN 290053Z 12021G35KT 3SM RASN BR FEW007 OVC019 03/01 A2940 RMK AO2 PK WND 12039/0040 SLP956 P0012 T00280011 $
PAJN 290031Z 11026G36KT 3SM RASN BR FEW007 OVC019 03/01 A2939 RMK AO2 PK WND 12037/0005 P0008 T00280011 $
PAJN 282353Z 12025G33KT 4SM RASN BR FEW013 OVC017 03/01 A2941 RMK AO2 PK WND 11049/2307 SLP960 VIS HYR SW-NW P0011 60053 T00330011 10039 20022 55005 $

METAR Board
Radar Display
Forecast Discussion
For situational awareness. Not to be used for flight planning purposes.